Time;durP1;ratioP1;P1;durP2;ratioP2;P2;SDS_P1;SDS_P2;PMS_P1;PMS_P2;Temp;Humidity;BMP_temperature;BMP_pressure;BME280_temperature;BME280_humidity;BME280_pressure;Samples;Min_cycle;Max_cycle;Signal;HPM_P1;HPM_P2
2021/03/13 00:02:24;;;;;;;2.92;2.00;;;;;;;6.50;74.34;99275.28;10351140;28;20199;-72
2021/03/13 00:07:25;;;;;;;2.50;2.30;;;;;;;6.44;73.98;99278.41;10360490;28;20589;-69
2021/03/13 00:12:27;;;;;;;2.70;2.20;;;;;;;6.43;74.63;99280.22;10353201;28;20053;-68
2021/03/13 00:17:28;;;;;;;2.80;2.40;;;;;;;6.57;74.26;99268.56;10350642;28;20057;-68
2021/03/13 00:22:29;;;;;;;2.03;1.83;;;;;;;6.52;74.51;99263.63;10354340;28;20124;-69
2021/03/13 00:27:31;;;;;;;2.38;1.98;;;;;;;6.63;74.20;99260.13;10348834;28;20057;-69
2021/03/13 00:32:56;;;;;;;3.17;1.92;;;;;;;6.61;74.76;99263.88;10346682;28;20052;-70
2021/03/13 00:37:59;;;;;;;5.13;2.05;;;;;;;6.51;75.00;99243.44;10358081;28;20053;-69
2021/03/13 00:43:02;;;;;;;3.05;1.95;;;;;;;6.70;75.18;99245.47;10364631;28;20049;-70
2021/03/13 00:48:05;;;;;;;4.68;2.08;;;;;;;6.71;75.39;99239.22;10393549;28;20100;-70
2021/03/13 00:53:07;;;;;;;0.93;0.90;;;;;;;6.73;75.71;99231.97;10398922;28;20049;-69
2021/03/13 00:58:08;;;;;;;2.78;1.30;;;;;;;6.80;75.39;99227.06;10347783;28;20465;-70
2021/03/13 01:03:11;;;;;;;2.65;1.45;;;;;;;6.73;76.18;99204.72;10344452;28;20053;-68
2021/03/13 01:08:12;;;;;;;1.58;0.60;;;;;;;6.78;75.73;99206.97;10346754;28;20389;-70
2021/03/13 01:13:23;;;;;;;4.47;1.73;;;;;;;6.84;75.45;99180.03;10347975;28;20061;-70
2021/03/13 01:18:25;;;;;;;2.75;0.73;;;;;;;6.82;75.51;99184.59;10352525;28;20212;-70
2021/03/13 01:23:26;;;;;;;2.20;0.80;;;;;;;6.84;75.73;99175.56;10364720;28;20052;-69
2021/03/13 01:28:27;;;;;;;3.10;0.60;;;;;;;6.90;75.49;99168.94;10345635;28;20050;-70
2021/03/13 01:33:34;;;;;;;2.90;0.90;;;;;;;6.98;75.27;99161.22;10344446;28;20050;-70
2021/03/13 01:38:36;;;;;;;4.15;1.42;;;;;;;6.93;75.33;99154.63;10351224;28;20099;-70
2021/03/13 01:43:38;;;;;;;1.60;0.50;;;;;;;6.97;75.51;99138.34;10346158;28;20567;-71
2021/03/13 01:48:46;;;;;;;1.50;0.60;;;;;;;7.00;75.55;99138.09;10346211;28;20424;-70
2021/03/13 01:53:51;;;;;;;1.17;0.60;;;;;;;6.93;75.77;99136.94;10344267;28;20397;-70
2021/03/13 01:58:52;;;;;;;2.15;0.90;;;;;;;6.90;75.97;99121.31;10345860;28;20374;-70
2021/03/13 02:03:55;;;;;;;1.20;0.70;;;;;;;6.83;75.98;99105.13;10346360;28;20050;-68
2021/03/13 02:09:10;;;;;;;1.40;0.60;;;;;;;6.85;75.78;99086.47;10353178;28;20054;-68
2021/03/13 02:14:21;;;;;;;2.35;0.90;;;;;;;6.97;75.49;99088.09;10343648;28;20417;-69
2021/03/13 02:19:52;;;;;;;1.48;1.10;;;;;;;6.92;75.69;99079.72;10345964;28;20121;-70
2021/03/13 02:25:03;;;;;;;1.38;0.65;;;;;;;6.90;76.09;99063.97;10348606;28;20476;-69
2021/03/13 02:30:06;;;;;;;1.27;0.70;;;;;;;6.87;75.70;99042.22;10360659;28;20045;-70
2021/03/13 02:35:16;;;;;;;1.25;0.60;;;;;;;6.93;76.15;99044.34;10355629;28;20137;-69
2021/03/13 02:40:21;;;;;;;0.90;0.60;;;;;;;7.02;75.93;99048.00;10353611;28;20053;-69
2021/03/13 02:45:26;;;;;;;1.23;0.70;;;;;;;6.90;76.60;99037.50;10356342;28;20504;-69
2021/03/13 02:50:29;;;;;;;3.08;0.80;;;;;;;6.83;77.25;99024.91;10352538;28;20089;-69
2021/03/13 02:55:32;;;;;;;2.25;0.75;;;;;;;6.78;77.47;98990.09;10368852;28;20052;-69
2021/03/13 03:00:36;;;;;;;2.05;0.85;;;;;;;6.86;77.25;98992.91;10352210;28;20132;-70
2021/03/13 03:05:39;;;;;;;1.67;0.70;;;;;;;6.78;78.38;98990.91;10359198;28;20045;-69
2021/03/13 03:10:43;;;;;;;5.05;1.73;;;;;;;6.64;79.60;98980.69;10361332;28;20045;-69
2021/03/13 03:15:46;;;;;;;1.20;0.70;;;;;;;6.70;80.33;98985.47;10347586;28;20734;-70
2021/03/13 03:20:49;;;;;;;1.20;0.63;;;;;;;6.57;80.50;98961.84;10358142;28;20199;-69
2021/03/13 03:25:54;;;;;;;1.65;0.80;;;;;;;6.52;81.20;98962.22;10356033;28;20579;-70
2021/03/13 03:30:55;;;;;;;1.02;0.52;;;;;;;6.62;81.33;98951.72;10354373;28;20046;-70
2021/03/13 03:35:57;;;;;;;2.50;0.77;;;;;;;6.58;81.09;98937.09;10361035;28;20530;-70
2021/03/13 03:40:58;;;;;;;2.15;0.60;;;;;;;6.60;81.19;98931.66;10355012;28;20069;-69
2021/03/13 03:46:00;;;;;;;2.90;0.75;;;;;;;6.62;81.99;98927.94;10347493;28;20050;-70
2021/03/13 03:51:09;;;;;;;2.45;1.10;;;;;;;6.63;81.49;98913.72;10348476;28;20445;-70
2021/03/13 03:56:10;;;;;;;0.73;0.40;;;;;;;6.73;80.87;98919.91;10350762;28;20057;-69
2021/03/13 04:01:13;;;;;;;2.15;0.50;;;;;;;6.71;80.88;98905.13;10350765;28;20132;-69
2021/03/13 04:06:15;;;;;;;0.90;0.38;;;;;;;6.85;80.47;98906.59;10353126;28;20129;-70
2021/03/13 04:11:20;;;;;;;1.50;0.70;;;;;;;6.82;81.15;98901.59;10350558;28;20060;-69
2021/03/13 04:16:22;;;;;;;2.30;0.70;;;;;;;6.75;82.00;98906.56;10350593;28;20491;-69
2021/03/13 04:21:25;;;;;;;2.28;0.88;;;;;;;6.82;82.43;98898.94;10351285;28;20793;-70
2021/03/13 04:26:29;;;;;;;2.47;0.77;;;;;;;6.74;82.84;98894.31;10353284;28;20050;-70
2021/03/13 04:31:32;;;;;;;1.90;0.83;;;;;;;6.77;82.68;98882.63;10350173;28;20072;-70
2021/03/13 04:36:33;;;;;;;1.70;0.88;;;;;;;6.84;83.41;98887.22;10373235;28;20080;-70
2021/03/13 04:41:36;;;;;;;1.88;0.70;;;;;;;6.77;84.16;98872.03;10377473;28;20053;-70
2021/03/13 04:46:38;;;;;;;2.20;0.73;;;;;;;6.78;84.39;98860.50;10356590;28;20058;-70
2021/03/13 04:51:40;;;;;;;3.88;0.63;;;;;;;6.82;84.85;98848.69;10349672;28;20041;-71
2021/03/13 04:56:41;;;;;;;2.97;0.60;;;;;;;6.76;84.52;98833.34;10349441;28;20475;-70
2021/03/13 05:01:42;;;;;;;2.50;0.60;;;;;;;6.78;85.10;98826.09;10349446;28;20085;-70
2021/03/13 05:06:43;;;;;;;1.50;0.50;;;;;;;6.83;84.64;98813.31;10349444;28;20060;-70
2021/03/13 05:11:45;;;;;;;1.42;0.50;;;;;;;6.85;84.76;98808.75;10361285;28;20060;-70
2021/03/13 05:16:46;;;;;;;2.28;0.25;;;;;;;6.71;84.55;98784.34;10350363;28;20060;-70
2021/03/13 05:21:47;;;;;;;1.55;0.38;;;;;;;6.83;84.41;98787.72;10350176;28;20054;-70
2021/03/13 05:26:49;;;;;;;1.70;0.65;;;;;;;6.82;83.81;98771.97;10354227;28;20113;-70
2021/03/13 05:31:50;;;;;;;0.88;0.30;;;;;;;6.78;83.50;98757.34;10356220;28;20431;-70
2021/03/13 05:36:51;;;;;;;1.58;0.20;;;;;;;6.85;82.99;98758.47;10349106;28;20068;-71
2021/03/13 05:41:53;;;;;;;1.20;0.20;;;;;;;6.82;82.55;98746.34;10352580;28;20106;-71
2021/03/13 05:46:55;;;;;;;0.93;0.20;;;;;;;6.90;81.79;98737.72;10353288;28;20054;-70
2021/03/13 05:51:59;;;;;;;5.28;0.47;;;;;;;6.86;81.43;98723.97;10348267;28;20481;-71
2021/03/13 05:57:11;;;;;;;1.52;0.35;;;;;;;6.97;81.14;98715.06;10349145;28;20046;-71
2021/03/13 06:02:12;;;;;;;1.33;0.47;;;;;;;6.98;81.21;98700.00;10356650;28;20046;-70
2021/03/13 06:07:20;;;;;;;1.70;0.60;;;;;;;7.02;80.67;98682.88;10353623;28;20052;-70
2021/03/13 06:12:23;;;;;;;1.50;0.40;;;;;;;7.04;80.43;98670.34;10346625;28;20062;-70
2021/03/13 06:17:26;;;;;;;1.17;0.60;;;;;;;7.10;82.00;98669.81;10345248;28;20460;-71
2021/03/13 06:22:43;;;;;;;4.75;0.73;;;;;;;7.13;81.16;98655.44;10345028;28;20154;-70
2021/03/13 06:27:51;;;;;;;4.13;0.43;;;;;;;7.21;81.10;98655.59;10344627;28;20144;-70
2021/03/13 06:32:52;;;;;;;4.28;1.10;;;;;;;7.31;80.50;98647.63;10345939;28;20050;-71
2021/03/13 06:37:55;;;;;;;4.00;0.73;;;;;;;7.35;80.39;98641.91;10352022;28;20129;-68
2021/03/13 06:42:58;;;;;;;2.80;0.82;;;;;;;7.28;79.65;98632.88;10343066;28;20049;-71
2021/03/13 06:48:00;;;;;;;2.70;0.60;;;;;;;7.35;79.31;98620.72;10345449;28;20147;-71
2021/03/13 06:53:10;;;;;;;3.08;0.90;;;;;;;7.38;79.07;98616.97;10336914;28;20065;-69
2021/03/13 06:58:13;;;;;;;3.38;0.52;;;;;;;7.42;78.81;98598.00;10349303;28;20052;-67
2021/03/13 07:03:15;;;;;;;4.68;0.88;;;;;;;7.58;77.99;98601.84;10350843;28;20200;-67
2021/03/13 07:08:27;;;;;;;3.78;0.50;;;;;;;7.61;76.43;98583.00;10337918;28;20080;-68
2021/03/13 07:13:37;;;;;;;2.28;0.50;;;;;;;7.72;75.46;98590.78;10334279;28;20423;-66
2021/03/13 07:18:39;;;;;;;2.53;1.13;;;;;;;7.76;75.61;98594.81;10341219;28;20511;-68
2021/03/13 07:23:48;;;;;;;2.97;0.52;;;;;;;7.77;74.81;98588.53;10345263;28;20062;-69
2021/03/13 07:28:52;;;;;;;2.33;0.60;;;;;;;7.84;75.10;98601.22;10352577;28;20052;-69
2021/03/13 07:34:00;;;;;;;1.48;0.40;;;;;;;7.78;75.54;98579.59;10357242;28;20417;-68
2021/03/13 07:39:07;;;;;;;4.43;1.00;;;;;;;7.85;75.61;98573.72;10343702;28;20060;-68
2021/03/13 07:44:09;;;;;;;1.55;0.40;;;;;;;7.86;74.44;98572.75;10340503;28;20042;-69
2021/03/13 07:49:12;;;;;;;2.83;0.40;;;;;;;7.91;73.72;98558.09;10343602;28;20052;-66
2021/03/13 07:54:15;;;;;;;1.63;0.40;;;;;;;8.05;72.34;98530.25;10342850;28;20723;-69
2021/03/13 07:59:46;;;;;;;1.65;0.43;;;;;;;8.24;71.87;98541.69;10354637;28;20053;-68
2021/03/13 08:04:56;;;;;;;4.03;0.90;;;;;;;8.32;71.30;98533.81;10340598;28;20160;-67
2021/03/13 08:09:57;;;;;;;3.72;0.65;;;;;;;8.34;70.41;98518.59;10338721;28;20132;-66
2021/03/13 08:14:59;;;;;;;2.30;0.70;;;;;;;8.31;70.39;98513.59;10340833;28;20050;-67
2021/03/13 08:20:10;;;;;;;5.22;1.38;;;;;;;8.35;70.66;98535.31;10364799;28;20062;-68
2021/03/13 08:25:26;;;;;;;2.25;0.45;;;;;;;8.36;70.50;98526.38;10347177;28;20048;-69
2021/03/13 08:30:29;;;;;;;2.15;0.50;;;;;;;8.40;70.81;98533.88;10340970;28;20121;-69
2021/03/13 08:35:37;;;;;;;3.20;0.70;;;;;;;8.41;68.62;98524.13;10340789;28;20404;-66
2021/03/13 08:40:43;;;;;;;4.00;0.70;;;;;;;8.46;67.96;98522.69;10339707;28;20501;-67
2021/03/13 08:45:44;;;;;;;2.72;0.68;;;;;;;8.55;68.30;98509.53;10354518;28;20152;-66
2021/03/13 08:50:45;;;;;;;2.75;1.20;;;;;;;8.62;66.39;98486.72;10343062;28;20157;-67
2021/03/13 08:55:46;;;;;;;2.40;0.47;;;;;;;8.69;65.73;98482.44;10341387;28;21636;-67
2021/03/13 09:00:48;;;;;;;1.98;0.40;;;;;;;8.71;65.64;98488.44;10339760;28;20038;-68
2021/03/13 09:05:49;;;;;;;4.15;0.68;;;;;;;8.81;64.78;98483.00;10337576;28;20528;-68
2021/03/13 09:10:50;;;;;;;3.30;0.60;;;;;;;8.80;65.25;98468.09;10339531;28;20133;-69
2021/03/13 09:15:51;;;;;;;1.25;0.32;;;;;;;8.80;65.38;98470.75;10339850;28;20056;-67
2021/03/13 09:20:53;;;;;;;3.17;0.77;;;;;;;8.89;65.79;98453.03;10340537;28;20053;-71
2021/03/13 09:25:54;;;;;;;3.38;0.43;;;;;;;8.79;65.82;98451.34;10339478;28;20519;-68
2021/03/13 09:30:55;;;;;;;2.20;0.35;;;;;;;8.77;66.53;98445.38;10337190;28;20045;-69
2021/03/13 09:36:09;;;;;;;1.77;0.43;;;;;;;8.84;65.91;98457.03;10338500;28;20067;-68
2021/03/13 09:41:14;;;;;;;1.73;0.40;;;;;;;8.84;66.43;98441.09;10337794;28;20517;-67
2021/03/13 09:46:17;;;;;;;2.97;0.50;;;;;;;8.84;67.32;98434.94;10339034;28;21164;-68
2021/03/13 09:51:19;;;;;;;1.75;0.40;;;;;;;8.73;68.11;98420.13;10337196;28;20505;-67
2021/03/13 09:56:30;;;;;;;2.55;0.38;;;;;;;8.72;69.46;98423.78;10337333;28;20133;-69
2021/03/13 10:01:32;;;;;;;3.33;0.90;;;;;;;8.73;69.71;98412.16;10339219;28;20493;-70
2021/03/13 10:06:34;;;;;;;0.82;0.40;;;;;;;8.76;69.19;98395.13;10338547;28;20433;-71
2021/03/13 10:11:43;;;;;;;1.90;0.57;;;;;;;8.73;69.17;98396.25;10361543;28;20063;-69
2021/03/13 10:16:45;;;;;;;1.77;0.40;;;;;;;8.81;69.62;98404.28;10334950;28;20077;-70
2021/03/13 10:22:23;;;;;;;3.88;0.30;;;;;;;8.80;68.16;98376.06;10330946;28;20145;-68
2021/03/13 10:27:28;;;;;;;1.75;0.22;;;;;;;8.83;68.06;98365.13;10331514;28;20145;-68
2021/03/13 10:32:32;;;;;;;1.02;0.40;;;;;;;8.90;69.17;98414.91;10349063;28;20144;-69
2021/03/13 10:37:55;;;;;;;0.97;0.30;;;;;;;8.69;72.68;98432.03;10335518;28;20119;-68
2021/03/13 10:43:45;;;;;;;2.47;0.57;;;;;;;8.35;76.59;98448.69;10334775;28;20050;-69
2021/03/13 10:48:53;;;;;;;3.47;0.55;;;;;;;8.27;79.29;98496.31;10343830;28;20045;-69
2021/03/13 10:53:56;;;;;;;1.65;0.73;;;;;;;8.17;79.82;98496.41;10339941;28;20042;-69
2021/03/13 10:58:58;;;;;;;0.75;0.50;;;;;;;7.82;83.92;98521.03;10343540;28;20064;-69
2021/03/13 11:03:59;;;;;;;0.60;0.30;;;;;;;7.93;79.78;98523.50;10359020;28;20056;-68
2021/03/13 11:09:04;;;;;;;1.88;0.85;;;;;;;7.97;77.92;98532.78;10335358;28;674586;-67
2021/03/13 11:14:09;;;;;;;1.42;0.40;;;;;;;7.98;78.30;98555.66;10345010;28;20076;-70
2021/03/13 11:19:11;;;;;;;1.05;0.20;;;;;;;7.99;78.22;98581.19;10345563;28;20101;-69
2021/03/13 11:24:12;;;;;;;0.95;0.15;;;;;;;7.89;78.99;98583.03;10345381;28;20045;-68
2021/03/13 11:29:14;;;;;;;0.50;0.30;;;;;;;7.92;78.50;98588.06;10360499;28;20612;-70
2021/03/13 11:34:15;;;;;;;0.95;0.30;;;;;;;7.88;76.42;98618.47;10351110;28;20139;-69
2021/03/13 11:39:16;;;;;;;2.35;0.30;;;;;;;7.50;75.98;98570.78;10344165;28;20651;-70
2021/03/13 11:44:36;;;;;;;0.35;0.30;;;;;;;7.50;76.99;98593.81;10341084;28;20054;-68
2021/03/13 11:49:37;;;;;;;1.30;0.52;;;;;;;7.69;76.34;98575.19;10341382;28;20357;-70
2021/03/13 11:54:38;;;;;;;1.35;0.57;;;;;;;7.52;74.79;98554.75;10341290;28;20053;-69
2021/03/13 11:59:40;;;;;;;1.60;0.30;;;;;;;7.61;74.41;98548.59;10340732;28;20108;-71
2021/03/13 12:04:46;;;;;;;1.17;0.40;;;;;;;7.48;72.65;98522.47;10338386;28;20491;-68
2021/03/13 12:09:47;;;;;;;2.00;0.40;;;;;;;7.56;72.61;98541.09;10341223;28;20128;-68
2021/03/13 12:14:48;;;;;;;1.42;0.32;;;;;;;7.68;73.77;98554.97;10341540;28;20140;-68
2021/03/13 12:19:50;;;;;;;1.98;0.93;;;;;;;7.51;71.53;98559.22;10343853;28;21445;-69
2021/03/13 12:24:54;;;;;;;1.05;0.30;;;;;;;7.53;70.13;98557.25;10341845;28;20046;-70
2021/03/13 12:29:55;;;;;;;1.13;0.40;;;;;;;7.52;69.28;98550.31;10340711;28;20141;-70
2021/03/13 12:34:57;;;;;;;6.35;4.95;;;;;;;7.66;68.24;98572.00;10342531;28;20188;-69
2021/03/13 12:39:59;;;;;;;4.05;0.55;;;;;;;7.86;66.17;98564.78;10339776;28;20133;-69
2021/03/13 12:45:01;;;;;;;1.73;0.32;;;;;;;7.58;66.18;98564.78;10340531;28;20539;-69
2021/03/13 12:50:05;;;;;;;1.15;0.30;;;;;;;7.67;66.34;98569.22;10339632;28;20061;-69
2021/03/13 12:55:07;;;;;;;1.38;0.40;;;;;;;7.58;66.77;98557.69;10341894;28;20050;-68
2021/03/13 13:00:09;;;;;;;2.20;0.55;;;;;;;7.56;67.21;98559.63;10336717;28;20057;-69
2021/03/13 13:05:11;;;;;;;0.60;0.20;;;;;;;7.87;67.79;98551.41;10340184;28;20061;-69
2021/03/13 13:10:13;;;;;;;2.22;0.50;;;;;;;12.57;52.84;98540.03;10351542;28;20049;-68
2021/03/13 13:15:14;;;;;;;3.28;0.70;;;;;;;13.73;48.04;98537.91;10338990;28;20052;-69
2021/03/13 13:20:16;;;;;;;2.72;0.43;;;;;;;11.81;50.87;98521.94;10337673;28;20058;-66
2021/03/13 13:25:18;;;;;;;1.73;0.52;;;;;;;11.05;53.95;98515.34;10352469;28;20041;-70
2021/03/13 13:30:20;;;;;;;2.10;0.80;;;;;;;10.03;56.81;98510.31;10338393;28;20050;-71
2021/03/13 13:35:21;;;;;;;2.45;0.68;;;;;;;11.48;54.44;98479.44;10335771;28;20069;-67
2021/03/13 13:40:24;;;;;;;1.88;0.50;;;;;;;12.43;51.22;98492.75;10338642;28;20125;-69
2021/03/13 13:45:26;;;;;;;2.40;0.70;;;;;;;11.89;51.39;98504.22;10340719;28;20041;-69
2021/03/13 13:50:29;;;;;;;2.28;0.95;;;;;;;9.79;57.56;98492.44;10335274;28;20052;-70
2021/03/13 13:55:31;;;;;;;2.75;0.82;;;;;;;9.15;60.40;98495.50;10350677;28;20073;-68
2021/03/13 14:00:32;;;;;;;3.42;1.17;;;;;;;8.93;62.72;98512.78;10333955;28;20048;-68
2021/03/13 14:05:36;;;;;;;4.63;1.33;;;;;;;9.68;59.86;98496.25;10333410;28;20053;-69
2021/03/13 14:10:37;;;;;;;2.70;1.30;;;;;;;9.03;62.92;98509.03;10325993;28;20049;-68
2021/03/13 14:15:39;;;;;;;2.85;1.33;;;;;;;8.77;63.40;98489.63;10348409;28;20050;-69
2021/03/13 14:20:40;;;;;;;3.33;1.30;;;;;;;8.70;64.05;98518.59;10325734;22;20049;-64
2021/03/13 14:25:41;;;;;;;5.22;1.33;;;;;;;8.70;63.31;98523.91;10340720;28;20144;-64
2021/03/13 14:30:43;;;;;;;5.57;1.77;;;;;;;9.59;60.45;98531.72;10351594;28;20194;-65
2021/03/13 14:35:45;;;;;;;3.45;1.45;;;;;;;9.43;61.30;98514.75;10339187;28;20061;-66
2021/03/13 14:40:46;;;;;;;2.63;1.10;;;;;;;9.23;63.11;98524.75;10346968;28;20257;-63
2021/03/13 14:45:48;;;;;;;3.50;1.38;;;;;;;9.25;62.74;98517.47;10343111;28;20073;-66
2021/03/13 14:50:50;;;;;;;2.97;0.93;;;;;;;9.43;61.95;98522.72;10330319;28;20100;-65
2021/03/13 14:55:51;;;;;;;2.40;0.93;;;;;;;9.54;60.08;98490.53;10358127;28;20057;-65
2021/03/13 15:00:53;;;;;;;3.58;0.90;;;;;;;10.05;57.62;98513.63;10339484;28;20058;-65
2021/03/13 15:05:55;;;;;;;3.20;0.73;;;;;;;9.81;57.63;98491.28;10342775;28;20046;-65
2021/03/13 15:10:56;;;;;;;2.15;0.63;;;;;;;9.87;57.47;98511.09;10344421;28;20077;-64
2021/03/13 15:15:57;;;;;;;0.88;0.35;;;;;;;9.50;59.69;98521.09;10318320;28;20064;-65
2021/03/13 15:20:58;;;;;;;1.77;0.65;;;;;;;9.30;60.92;98515.16;10339560;28;20629;-64
2021/03/13 15:26:00;;;;;;;2.28;0.40;;;;;;;9.09;61.39;98523.50;10347485;28;20062;-65
2021/03/13 15:31:03;;;;;;;1.92;0.50;;;;;;;8.85;61.87;98495.81;10346790;28;20480;-65
2021/03/13 15:36:04;;;;;;;2.80;0.57;;;;;;;9.08;62.12;98500.59;10343519;28;20104;-63
2021/03/13 15:41:07;;;;;;;3.22;0.85;;;;;;;9.25;61.41;98511.31;10342288;28;20871;-64
2021/03/13 15:46:10;;;;;;;1.73;0.45;;;;;;;9.31;59.79;98508.06;10336399;28;20137;-65
2021/03/13 15:51:12;;;;;;;3.95;0.90;;;;;;;9.23;58.79;98511.47;10342997;28;20066;-63
2021/03/13 15:56:13;;;;;;;4.40;1.00;;;;;;;9.13;59.89;98516.91;10341372;28;20042;-64
2021/03/13 16:01:14;;;;;;;5.40;2.50;;;;;;;9.04;59.35;98488.66;10332324;28;20124;-64
2021/03/13 16:06:15;;;;;;;4.57;1.58;;;;;;;8.88;59.33;98505.28;10341083;28;20069;-65
2021/03/13 16:11:16;;;;;;;3.28;1.38;;;;;;;8.89;59.48;98519.38;10341521;28;20525;-66
2021/03/13 16:16:18;;;;;;;3.55;0.75;;;;;;;8.87;59.06;98513.41;10340636;28;20220;-64
2021/03/13 16:21:19;;;;;;;4.63;1.45;;;;;;;8.85;59.21;98505.59;10345587;28;20073;-64
2021/03/13 16:26:20;;;;;;;3.45;1.40;;;;;;;8.71;60.00;98490.22;10341157;28;20049;-63
2021/03/13 16:31:21;;;;;;;3.42;1.25;;;;;;;8.79;60.45;98512.34;10330571;28;20117;-64
2021/03/13 16:36:23;;;;;;;6.35;1.20;;;;;;;8.80;60.81;98550.34;10334590;28;20497;-60
2021/03/13 16:41:25;;;;;;;3.60;0.85;;;;;;;8.11;62.69;98560.63;10339678;28;20058;-63
2021/03/13 16:46:27;;;;;;;1.90;0.30;;;;;;;7.20;67.79;98596.50;10340202;28;20084;-64
2021/03/13 16:51:31;;;;;;;3.30;0.75;;;;;;;7.10;69.78;98613.38;10333691;28;20052;-65
2021/03/13 16:56:32;;;;;;;3.97;1.00;;;;;;;7.17;71.72;98607.38;10340691;28;20045;-64
2021/03/13 17:01:34;;;;;;;3.20;0.60;;;;;;;7.35;70.88;98581.00;10341926;28;20053;-63
2021/03/13 17:06:36;;;;;;;2.83;0.68;;;;;;;7.28;70.36;98579.09;10342359;28;20492;-66
2021/03/13 17:11:38;;;;;;;2.97;1.55;;;;;;;7.38;71.04;98585.19;10335879;28;20128;-65
2021/03/13 17:16:39;;;;;;;3.97;0.95;;;;;;;7.62;69.06;98566.16;10339675;28;20056;-63
2021/03/13 17:21:41;;;;;;;3.75;1.35;;;;;;;7.64;68.32;98581.91;10332765;28;20053;-65
2021/03/13 17:26:43;;;;;;;3.97;1.45;;;;;;;7.51;68.92;98584.88;10339772;28;20058;-65
2021/03/13 17:31:44;;;;;;;1.85;1.20;;;;;;;7.56;68.33;98593.22;10340095;28;20125;-65
2021/03/13 17:36:45;;;;;;;5.43;1.70;;;;;;;7.53;68.30;98572.31;10341904;28;20702;-64
2021/03/13 17:41:47;;;;;;;4.07;1.48;;;;;;;7.58;68.28;98583.31;10340159;28;20056;-65
2021/03/13 17:46:48;;;;;;;5.55;2.28;;;;;;;7.44;68.29;98582.78;10333309;28;20102;-66
2021/03/13 17:51:49;;;;;;;4.60;2.13;;;;;;;7.58;68.39;98618.59;10346957;28;20046;-65
2021/03/13 17:56:50;;;;;;;3.67;1.67;;;;;;;7.75;68.14;98613.50;10331696;28;20546;-66
2021/03/13 18:01:52;;;;;;;3.42;1.60;;;;;;;7.85;67.49;98616.97;10322397;28;20077;-64
2021/03/13 18:06:53;;;;;;;4.07;1.70;;;;;;;7.90;65.57;98659.72;10338970;28;22275;-70
2021/03/13 18:11:54;;;;;;;3.75;1.40;;;;;;;7.70;64.70;98682.81;10339884;28;20046;-64
2021/03/13 18:16:55;;;;;;;2.42;0.93;;;;;;;7.50;64.08;98686.47;10339941;28;20123;-66
2021/03/13 18:21:57;;;;;;;1.20;0.60;;;;;;;7.40;62.88;98700.56;10334967;28;20113;-65
2021/03/13 18:26:58;;;;;;;3.78;0.75;;;;;;;7.31;62.95;98690.81;10338815;28;21415;-65
2021/03/13 18:32:00;;;;;;;4.57;1.10;;;;;;;7.15;64.58;98682.63;10339855;28;20050;-65
2021/03/13 18:37:01;;;;;;;4.25;1.40;;;;;;;7.20;65.74;98698.91;10339373;28;20137;-66
2021/03/13 18:42:03;;;;;;;4.45;1.77;;;;;;;7.08;66.58;98706.97;10331357;28;20103;-64
2021/03/13 18:47:04;;;;;;;8.18;2.20;;;;;;;7.14;66.98;98721.47;10333700;28;20958;-66
2021/03/13 18:52:06;;;;;;;4.55;1.60;;;;;;;6.96;66.35;98694.03;10338207;28;20135;-65
2021/03/13 18:57:07;;;;;;;2.88;1.15;;;;;;;7.13;66.31;98724.25;10337336;28;20068;-65
2021/03/13 19:02:09;;;;;;;4.90;1.60;;;;;;;7.11;66.62;98707.69;10330935;28;20073;-64
2021/03/13 19:07:19;;;;;;;8.32;2.13;;;;;;;7.25;67.08;98733.72;10336721;28;20057;-66
2021/03/13 19:12:20;;;;;;;4.40;1.70;;;;;;;7.09;66.01;98739.56;10330371;28;20045;-66
2021/03/13 19:17:21;;;;;;;5.45;1.67;;;;;;;7.24;66.06;98742.66;10342703;28;20058;-65
2021/03/13 19:22:23;;;;;;;3.88;1.67;;;;;;;7.39;65.64;98751.81;10342546;28;20542;-64
2021/03/13 19:27:24;;;;;;;4.82;1.35;;;;;;;7.37;65.86;98740.56;10345780;28;20080;-67
2021/03/13 19:32:26;;;;;;;3.72;1.08;;;;;;;7.34;64.89;98751.44;10346076;28;20144;-64
2021/03/13 19:37:27;;;;;;;11.80;4.55;;;;;;;7.30;65.24;98750.03;10344280;28;20491;-65
2021/03/13 19:42:28;;;;;;;25.10;9.75;;;;;;;7.48;66.62;98733.44;10346048;28;20341;-63
2021/03/13 19:47:29;;;;;;;5.68;2.50;;;;;;;7.71;64.96;98732.13;10343552;28;20060;-66
2021/03/13 19:52:31;;;;;;;2.15;1.08;;;;;;;7.72;62.31;98731.16;10343097;28;20358;-66
2021/03/13 19:57:38;;;;;;;4.57;2.33;;;;;;;7.85;61.39;98740.63;10336375;28;20057;-65
2021/03/13 20:02:39;;;;;;;3.55;1.40;;;;;;;7.77;59.77;98752.75;10341818;28;20136;-65
2021/03/13 20:07:41;;;;;;;2.22;0.80;;;;;;;7.66;60.34;98730.91;10341860;28;20115;-66
2021/03/13 20:12:42;;;;;;;2.22;0.70;;;;;;;7.43;59.58;98725.91;10341518;28;20743;-65
2021/03/13 20:17:43;;;;;;;1.42;0.70;;;;;;;7.48;60.26;98744.03;10347115;28;20636;-66
2021/03/13 20:22:45;;;;;;;3.22;0.95;;;;;;;7.39;60.12;98738.59;10338515;28;20050;-65
2021/03/13 20:27:47;;;;;;;3.22;1.40;;;;;;;7.21;61.12;98743.75;10339916;28;20049;-65
2021/03/13 20:32:49;;;;;;;6.10;1.40;;;;;;;7.21;61.75;98772.03;10344281;28;20073;-64
2021/03/13 20:37:51;;;;;;;2.90;0.77;;;;;;;7.19;62.33;98766.88;10342665;28;20451;-65
2021/03/13 20:42:53;;;;;;;2.38;0.80;;;;;;;7.06;61.93;98771.59;10341207;28;20085;-65
2021/03/13 20:47:59;;;;;;;5.13;2.30;;;;;;;7.06;62.57;98758.38;10339181;28;20069;-65
2021/03/13 20:53:02;;;;;;;2.95;1.23;;;;;;;7.09;63.82;98768.69;10344702;28;20074;-65
2021/03/13 20:58:03;;;;;;;3.25;1.85;;;;;;;7.02;64.98;98776.31;10341327;28;20133;-65
2021/03/13 21:03:05;;;;;;;4.15;1.75;;;;;;;6.92;65.40;98783.44;10338717;28;20424;-65
2021/03/13 21:08:11;;;;;;;5.32;1.67;;;;;;;7.04;66.06;98790.25;10333150;28;20050;-66
2021/03/13 21:13:12;;;;;;;6.55;2.08;;;;;;;7.01;65.78;98779.94;10340560;28;20049;-64
2021/03/13 21:18:19;;;;;;;3.78;1.00;;;;;;;6.80;65.79;98771.25;10341341;28;20045;-66
2021/03/13 21:23:21;;;;;;;2.97;0.95;;;;;;;6.90;65.78;98783.56;10339208;28;20143;-64
2021/03/13 21:28:22;;;;;;;2.75;1.67;;;;;;;6.90;65.46;98806.50;10339257;28;20104;-65
2021/03/13 21:33:23;;;;;;;4.65;1.75;;;;;;;6.83;65.79;98797.44;10332892;28;20197;-64
2021/03/13 21:38:24;;;;;;;1.75;1.02;;;;;;;6.79;65.28;98774.91;10340229;28;20060;-65
2021/03/13 21:43:25;;;;;;;4.15;2.03;;;;;;;6.70;65.88;98740.34;10339543;28;20049;-64
2021/03/13 21:48:41;;;;;;;7.18;1.42;;;;;;;6.76;65.72;98760.13;10339307;28;20117;-64
2021/03/13 21:53:43;;;;;;;2.42;1.35;;;;;;;6.60;65.98;98765.91;10341447;28;20467;-65
2021/03/13 21:58:44;;;;;;;2.08;1.05;;;;;;;6.53;65.68;98765.63;10341922;28;20064;-65
2021/03/13 22:03:45;;;;;;;4.97;1.52;;;;;;;6.47;66.52;98770.59;10346005;28;20081;-65
2021/03/13 22:08:46;;;;;;;3.60;1.40;;;;;;;6.53;66.34;98778.00;10344989;28;20598;-65
2021/03/13 22:13:47;;;;;;;3.83;0.95;;;;;;;6.50;65.26;98776.47;10349610;28;20642;-65
2021/03/13 22:19:06;;;;;;;4.07;1.27;;;;;;;6.40;65.26;98743.06;10348704;28;20110;-65
2021/03/13 22:24:08;;;;;;;2.90;1.00;;;;;;;6.37;64.81;98752.91;10348885;28;20664;-65
2021/03/13 22:29:09;;;;;;;3.42;1.23;;;;;;;6.37;64.70;98755.56;10356698;28;20137;-65
2021/03/13 22:34:10;;;;;;;2.40;0.90;;;;;;;6.36;64.68;98748.63;10348538;28;20069;-66
2021/03/13 22:39:12;;;;;;;2.50;1.05;;;;;;;6.19;64.50;98741.31;10331966;28;20137;-65
2021/03/13 22:44:13;;;;;;;4.70;0.98;;;;;;;6.32;65.22;98765.69;10363725;23;20054;-69
2021/03/13 22:49:29;;;;;;;3.53;0.85;;;;;;;6.34;64.79;98776.97;10327554;28;20052;-69
2021/03/13 22:54:30;;;;;;;2.78;1.20;;;;;;;6.30;64.99;98775.53;10366359;28;20136;-71
2021/03/13 22:59:32;;;;;;;3.10;1.30;;;;;;;6.33;64.98;98777.91;10396213;28;20103;-68
2021/03/13 23:04:33;;;;;;;2.97;0.95;;;;;;;6.35;64.17;98778.66;10397116;28;20079;-71
2021/03/13 23:09:34;;;;;;;6.20;2.35;;;;;;;6.27;64.03;98788.19;10388823;28;20115;-69
2021/03/13 23:14:36;;;;;;;3.25;1.00;;;;;;;6.31;64.65;98793.09;10402171;28;20061;-69
2021/03/13 23:19:52;;;;;;;3.78;1.20;;;;;;;6.32;64.78;98825.63;10395961;28;20045;-69
2021/03/13 23:24:54;;;;;;;4.75;1.02;;;;;;;6.40;64.69;98828.47;10384550;28;20061;-68
2021/03/13 23:29:55;;;;;;;6.28;1.10;;;;;;;6.52;64.22;98831.88;10375353;28;20393;-68
2021/03/13 23:34:57;;;;;;;2.80;0.90;;;;;;;6.38;63.93;98833.06;10400451;28;20041;-68
2021/03/13 23:39:58;;;;;;;3.75;1.00;;;;;;;6.47;64.71;98849.91;10380877;28;20077;-70
2021/03/13 23:44:59;;;;;;;4.13;1.23;;;;;;;6.53;64.38;98849.38;10397887;28;20062;-69
2021/03/13 23:50:18;;;;;;;3.75;1.00;;;;;;;6.48;64.74;98836.56;10395933;28;20049;-70